Crawford — 9V3169 — position and weather

sailwx.info

Track history (hours):
 
Tides and Currents Weather Stations Pressure Air Temp Water Temp Dewpoint Dewpoint Depression Visibility Wind Speed Wind Dir Waves Ship Positions

Crawford

Last reported at 2018-Jul-08 03:29 UTC. Time now 2018-Jul-21 03:35 UTC.
Position N 06°04' E 001°15'.
Warning: this ship's position is 13 days out of date.

Length 176 m; draft 8.1 m.

Type: Ship. MMSI: 565826000.

Date/timePositionNaut miles runAvg speedWind from/ knotsBaromVisibWave heightAir tempDewpointWater temp
2018-Jul-08 03:29N 06°04' E 001°15'0 0.0
2018-Jul-08 02:59N 06°04' E 001°15'0 0.0
2018-Jul-08 02:08N 06°04' E 001°15'0 0.0
2018-Jul-08 01:46N 06°04' E 001°15'0 0.1
2018-Jul-08 01:30N 06°04' E 001°15'0 0.0
2018-Jul-08 01:01N 06°04' E 001°15'0 0.0
2018-Jul-08 00:30N 06°04' E 001°15'0 0.1
2018-Jul-07 23:59N 06°04' E 001°15'0 0.0
2018-Jul-07 23:30N 06°04' E 001°15'0 0.0
2018-Jul-07 23:00N 06°04' E 001°15'0 0.0
2018-Jul-07 22:30N 06°04' E 001°15'0 0.0
2018-Jul-07 21:57N 06°04' E 001°15'0 0.0
2018-Jul-07 21:31N 06°04' E 001°15'0 0.0
2018-Jul-07 21:00N 06°04' E 001°15'0 0.0
2018-Jul-07 20:31N 06°04' E 001°15'0 0.0
2018-Jul-07 19:59N 06°04' E 001°15'0 0.0
2018-Jul-07 19:18N 06°04' E 001°15'0 0.0
2018-Jul-07 19:00N 06°04' E 001°15'0 0.0
2018-Jul-07 18:30N 06°04' E 001°15'1 0.0
2018-Jul-06 03:27N 06°05' E 001°15'0 0.1
2018-Jul-06 02:53N 06°05' E 001°15'0 0.0
2018-Jul-06 02:21N 06°05' E 001°15'0 0.0
2018-Jul-06 01:54N 06°05' E 001°15'0 0.0
2018-Jul-06 01:30N 06°05' E 001°15'0 0.0
2018-Jul-06 00:58N 06°05' E 001°15'0 0.0
2018-Jul-05 23:04N 06°05' E 001°15'0 0.0
2018-Jul-05 22:52N 06°05' E 001°15'0 0.0
2018-Jul-05 20:54N 06°05' E 001°15'0 0.0
2018-Jul-05 19:41N 06°05' E 001°15'0 0.1
2018-Jul-05 16:51N 06°05' E 001°15'0 0.1
2018-Jul-05 16:20N 06°05' E 001°15'0 0.0
2018-Jul-05 16:00N 06°05' E 001°15'0 0.0
2018-Jul-05 15:29N 06°05' E 001°15'0 0.0
2018-Jul-05 08:40N 06°05' E 001°15'0 0.2
2018-Jul-05 08:27N 06°05' E 001°15'0 0.3
2018-Jul-05 07:29N 06°05' E 001°16'1 0.9
2018-Jul-05 06:38N 06°05' E 001°16'0 0.0
2018-Jul-05 05:01N 06°05' E 001°16'0 0.0
2018-Jul-05 04:31N 06°05' E 001°16'0 0.0
2018-Jul-05 04:30N 06°05' E 001°16'0 0.0
2018-Jul-05 03:58N 06°05' E 001°16'0 0.0
2018-Jul-05 03:28N 06°05' E 001°16'0 0.0
2018-Jul-05 02:31N 06°05' E 001°16'0 0.0
2018-Jul-05 02:30N 06°05' E 001°16'0 0.0
2018-Jul-05 00:12N 06°05' E 001°16'0 0.0
2018-Jul-04 23:52N 06°05' E 001°16'0 0.0
2018-Jul-04 23:30N 06°05' E 001°16'0 0.0
2018-Jul-04 22:57N 06°05' E 001°16'0 0.0
2018-Jul-04 22:30N 06°05' E 001°16'0 0.0
2018-Jul-04 22:00N 06°05' E 001°16'0 0.0
2018-Jul-04 21:24N 06°05' E 001°16'0 0.0
2018-Jul-04 21:01N 06°05' E 001°16'0 0.0
2018-Jul-04 20:07N 06°05' E 001°16'0 0.0
2018-Jul-04 20:00N 06°05' E 001°16'51 9.5
2018-Jul-04 14:40N 05°35' E 000°35'214.0
2018-Jul-04 14:30N 05°36' E 000°32'713.9
2018-Jul-04 14:01N 05°36' E 000°25'713.9
2018-Jul-04 13:30N 05°37' E 000°19'713.6
2018-Jul-04 13:00N 05°38' E 000°12'510.0
2018-Jul-04 12:30N 05°40' E 000°07'0 0.3
2018-Jul-04 12:00N 05°40' E 000°07'0 0.8
2018-Jul-04 11:31N 05°39' E 000°07'0 0.8
2018-Jul-04 11:01N 05°39' E 000°06'2 3.7
2018-Jul-04 10:30N 05°39' E 000°05'0 0.8
2018-Jul-04 10:01N 05°39' E 000°04'0 0.0
2018-Jul-04 09:31N 05°39' E 000°04'0 0.0
2018-Jul-04 09:00N 05°39' E 000°04'0 0.0
2018-Jul-04 08:31N 05°39' E 000°04'0 0.0
2018-Jul-04 08:01N 05°39' E 000°04'0 0.0
2018-Jul-04 07:31N 05°39' E 000°04'0 0.0
2018-Jul-04 07:01N 05°39' E 000°04'0 0.0
2018-Jul-04 06:31N 05°39' E 000°04'0 0.0
2018-Jul-04 06:01N 05°39' E 000°04'0 0.0
2018-Jul-04 05:31N 05°39' E 000°04'0 0.0
2018-Jul-04 05:01N 05°39' E 000°04'0 0.0
2018-Jul-04 04:31N 05°39' E 000°04'0 0.0
2018-Jul-04 04:01N 05°39' E 000°04'0 0.0
2018-Jul-04 03:30N 05°39' E 000°04'0 0.0
2018-Jul-04 03:00N 05°39' E 000°04'0 0.0
2018-Jul-04 02:30N 05°39' E 000°04'0 0.0
2018-Jul-04 02:01N 05°39' E 000°04'0 0.0
2018-Jul-04 01:31N 05°39' E 000°04'0 0.0
2018-Jul-04 01:01N 05°39' E 000°04'0 0.0
2018-Jul-04 00:31N 05°39' E 000°04'0 0.0
2018-Jul-04 00:01N 05°39' E 000°04'0 0.0
2018-Jul-03 23:31N 05°39' E 000°04'0 0.0
2018-Jul-03 23:01N 05°39' E 000°04'0 0.0
2018-Jul-03 22:30N 05°39' E 000°04'0 0.0
2018-Jul-03 22:01N 05°39' E 000°04'0 0.0
2018-Jul-03 21:31N 05°39' E 000°04'0 0.0
2018-Jul-03 21:01N 05°39' E 000°04'0 0.0
2018-Jul-03 20:31N 05°39' E 000°04'0 0.0
2018-Jul-03 20:01N 05°39' E 000°04'0 0.0
2018-Jul-03 19:31N 05°39' E 000°04'0 0.0
2018-Jul-03 19:01N 05°39' E 000°04'0 0.0
2018-Jul-03 18:31N 05°39' E 000°04'0 0.0
2018-Jul-03 18:01N 05°39' E 000°04'0 0.0
2018-Jul-03 17:31N 05°39' E 000°04'0 0.0
2018-Jul-03 17:01N 05°39' E 000°04'0 0.0
2018-Jul-03 16:30N 05°39' E 000°04'0 0.0
2018-Jul-03 16:01N 05°39' E 000°04'0 0.0
2018-Jul-03 15:31N 05°39' E 000°04'0 0.0
2018-Jul-03 15:01N 05°39' E 000°04'0 0.0
2018-Jul-03 14:31N 05°39' E 000°04'0 0.0
2018-Jul-03 14:01N 05°39' E 000°04'0 0.0
2018-Jul-03 13:31N 05°39' E 000°04'0 0.0
2018-Jul-03 13:01N 05°39' E 000°04'0 0.0
2018-Jul-03 12:31N 05°39' E 000°04'0 0.0
2018-Jul-03 12:00N 05°39' E 000°04'0 0.0
2018-Jul-03 11:31N 05°39' E 000°04'0 0.0
2018-Jul-03 11:01N 05°39' E 000°04'0 0.0
2018-Jul-03 10:31N 05°39' E 000°04'0 0.0
2018-Jul-03 10:01N 05°39' E 000°04'0 0.0
2018-Jul-03 09:31N 05°39' E 000°04'0 0.0
2018-Jul-03 09:01N 05°39' E 000°04'0 0.0
2018-Jul-03 08:30N 05°39' E 000°04'0 0.0
2018-Jul-03 08:00N 05°39' E 000°04'0 0.0
2018-Jul-03 07:30N 05°39' E 000°04'0 0.0
2018-Jul-03 07:01N 05°39' E 000°04'0 0.0
2018-Jul-03 06:31N 05°39' E 000°04'0 0.0
2018-Jul-03 06:01N 05°39' E 000°04'0 0.0
2018-Jul-03 05:30N 05°39' E 000°04'0 0.0
2018-Jul-03 05:01N 05°39' E 000°04'0 0.0
2018-Jul-03 04:31N 05°39' E 000°04'0 0.0
2018-Jul-03 04:01N 05°39' E 000°04'0 0.0
2018-Jul-03 03:31N 05°39' E 000°04'0 0.0
2018-Jul-03 03:01N 05°39' E 000°04'0 0.0
2018-Jul-03 02:30N 05°39' E 000°04'0 0.0
2018-Jul-03 02:01N 05°39' E 000°04'0 0.0
2018-Jul-03 01:31N 05°39' E 000°04'0 0.0
2018-Jul-03 01:01N 05°39' E 000°04'0 0.0
2018-Jul-03 00:31N 05°39' E 000°04'0 0.0
2018-Jul-03 00:01N 05°39' E 000°04'0 0.0
2018-Jul-02 23:31N 05°39' E 000°04'0 0.0
2018-Jul-02 23:01N 05°39' E 000°04'0 0.0
2018-Jul-02 22:31N 05°39' E 000°04'0 0.0
2018-Jul-02 22:01N 05°39' E 000°04'0 0.0
2018-Jul-02 21:30N 05°39' E 000°04'0 0.0
2018-Jul-02 21:01N 05°39' E 000°04'0 0.0
2018-Jul-02 20:31N 05°39' E 000°04'0 0.0
2018-Jul-02 20:01N 05°39' E 000°04'0 0.0
2018-Jul-02 19:31N 05°39' E 000°04'0 0.0
2018-Jul-02 19:01N 05°39' E 000°04'0 0.0
2018-Jul-02 18:31N 05°39' E 000°04'0 0.0
2018-Jul-02 18:01N 05°39' E 000°04'0 0.0
2018-Jul-02 17:31N 05°39' E 000°04'0 0.0
2018-Jul-02 17:00N 05°39' E 000°04'0 0.0
2018-Jul-02 16:31N 05°39' E 000°04'0 0.0
2018-Jul-02 16:01N 05°39' E 000°04'0 0.0
2018-Jul-02 15:31N 05°39' E 000°04'0 0.0
2018-Jul-02 15:01N 05°39' E 000°04'0 0.0
2018-Jul-02 14:31N 05°39' E 000°04'0 0.0
2018-Jul-02 14:01N 05°39' E 000°04'0 0.0
2018-Jul-02 13:31N 05°39' E 000°04'0 0.0
2018-Jul-02 13:01N 05°39' E 000°04'0 0.0
2018-Jul-02 12:31N 05°39' E 000°04'0 0.0
2018-Jul-02 12:01N 05°39' E 000°04'0 0.0
2018-Jul-02 11:31N 05°39' E 000°04'0 0.0
2018-Jul-02 11:01N 05°39' E 000°04'0 0.0
2018-Jul-02 10:31N 05°39' E 000°04'0 0.0
2018-Jul-02 10:01N 05°39' E 000°04'0 0.9
2018-Jul-02 09:30N 05°39' E 000°05'1 2.6
2018-Jul-02 09:00N 05°39' E 000°06'1 1.6
2018-Jul-02 08:30N 05°38' E 000°06'1 2.3
2018-Jul-02 08:00N 05°39' E 000°07'1 1.7
2018-Jul-02 07:30N 05°39' E 000°08'0 0.0
2018-Jul-02 07:00N 05°39' E 000°08'0 0.0
2018-Jul-02 06:30N 05°39' E 000°08'0 0.0
2018-Jul-02 06:00N 05°39' E 000°08'0 0.0
2018-Jul-02 05:31N 05°39' E 000°08'0 0.0
2018-Jul-02 05:00N 05°39' E 000°08'0 0.0
2018-Jul-02 04:29N 05°39' E 000°08'0 0.0
2018-Jul-02 04:00N 05°39' E 000°08'0 0.0
2018-Jul-02 03:28N 05°39' E 000°08'0 0.0
2018-Jul-02 03:00N 05°39' E 000°08'0 0.0
2018-Jul-02 02:30N 05°39' E 000°08'0 0.0
2018-Jul-02 01:57N 05°39' E 000°08'0 0.0
2018-Jul-02 01:30N 05°39' E 000°08'0 0.0
2018-Jul-02 01:00N 05°39' E 000°08'0 0.0
2018-Jul-02 00:29N 05°39' E 000°08'0 0.0
2018-Jul-02 00:01N 05°39' E 000°08'0 0.0
2018-Jul-01 23:29N 05°39' E 000°08'0 0.0
2018-Jul-01 23:01N 05°39' E 000°08'0 0.0
2018-Jul-01 22:29N 05°39' E 000°08'0 0.0
2018-Jul-01 21:59N 05°39' E 000°08'0 0.0
2018-Jul-01 21:30N 05°39' E 000°08'0 0.0
2018-Jul-01 21:00N 05°39' E 000°08'0 0.0
2018-Jul-01 20:30N 05°39' E 000°08'0 0.0
2018-Jul-01 20:00N 05°39' E 000°08'0 0.0
2018-Jul-01 19:31N 05°39' E 000°08'0 0.0
2018-Jul-01 19:00N 05°39' E 000°08'0 0.0
2018-Jul-01 18:30N 05°39' E 000°08'0 0.0
2018-Jul-01 18:00N 05°39' E 000°08'0 0.0
2018-Jul-01 17:31N 05°39' E 000°08'0 0.0
2018-Jul-01 17:00N 05°39' E 000°08'0 0.0
2018-Jul-01 16:30N 05°39' E 000°08'0 0.0
2018-Jul-01 16:00N 05°39' E 000°08'0 0.0
2018-Jul-01 15:29N 05°39' E 000°08'0 0.0
2018-Jul-01 15:01N 05°39' E 000°08'0 0.0
2018-Jul-01 14:30N 05°39' E 000°08'0 0.0
2018-Jul-01 14:00N 05°39' E 000°08'0 0.0
2018-Jul-01 13:31N 05°39' E 000°08'0 0.0
2018-Jul-01 13:01N 05°39' E 000°08'0 0.0
2018-Jul-01 12:30N 05°39' E 000°08'0 0.0
2018-Jul-01 12:00N 05°39' E 000°08'0 0.0
2018-Jul-01 11:31N 05°39' E 000°08'0 0.0
2018-Jul-01 11:00N 05°39' E 000°08'0 0.0
2018-Jul-01 10:30N 05°39' E 000°08'0 0.0
2018-Jul-01 09:59N 05°39' E 000°08'0 0.0
2018-Jul-01 09:30N 05°39' E 000°08'0 0.0
2018-Jul-01 09:00N 05°39' E 000°08'0 0.0
2018-Jul-01 08:30N 05°39' E 000°08'1 1.1
2018-Jul-01 08:00N 05°39' E 000°08'4 7.7
2018-Jul-01 07:30N 05°36' E 000°05'4 7.6
2018-Jul-01 07:00N 05°36' E 000°01'0 0.4
2018-Jul-01 06:31N 05°36' E 000°01'0 0.0
2018-Jul-01 06:01N 05°36' E 000°01'0 0.0
2018-Jul-01 05:28N 05°36' E 000°01'0 0.0
2018-Jul-01 05:01N 05°36' E 000°01'0 0.0
2018-Jul-01 04:30N 05°36' E 000°01'0 0.0
2018-Jul-01 04:00N 05°36' E 000°01'0 0.0
2018-Jul-01 03:30N 05°36' E 000°01'0 0.0
2018-Jul-01 03:00N 05°36' E 000°01'0 0.0
2018-Jul-01 02:30N 05°36' E 000°01'0 0.0
2018-Jul-01 02:00N 05°36' E 000°01'0 0.0
2018-Jul-01 01:27N 05°36' E 000°01'0 0.0
2018-Jul-01 01:00N 05°36' E 000°01'0 0.0
2018-Jul-01 00:30N 05°36' E 000°01'0 0.0
2018-Jul-01 00:00N 05°36' E 000°01'0 0.0
2018-Jun-30 23:30N 05°36' E 000°01'0 0.0
2018-Jun-30 23:01N 05°36' E 000°01'0 0.0
2018-Jun-30 22:30N 05°36' E 000°01'0 0.0
2018-Jun-30 21:59N 05°36' E 000°01'0 0.0
2018-Jun-30 21:31N 05°36' E 000°01'0 0.0
2018-Jun-30 21:00N 05°36' E 000°01'0 0.0
2018-Jun-30 20:31N 05°36' E 000°01'0 0.0
2018-Jun-30 20:00N 05°36' E 000°01'0 0.0
2018-Jun-30 19:30N 05°36' E 000°01'0 0.0
2018-Jun-30 19:01N 05°36' E 000°01'0 0.0
2018-Jun-30 18:31N 05°36' E 000°01'0 0.0
2018-Jun-30 18:00N 05°36' E 000°01'0 0.0
2018-Jun-30 17:31N 05°36' E 000°01'0 0.0
2018-Jun-30 17:00N 05°36' E 000°01'0 0.0
2018-Jun-30 16:30N 05°36' E 000°01'0 0.0
2018-Jun-30 15:59N 05°36' E 000°01'0 0.0
2018-Jun-30 15:31N 05°36' E 000°01'0 0.0
2018-Jun-30 15:01N 05°36' E 000°01'0 0.0
2018-Jun-30 14:31N 05°36' E 000°01'0 0.0
2018-Jun-30 14:00N 05°36' E 000°01'0 0.1
2018-Jun-30 13:30N 05°36' E 000°01'0 0.0
2018-Jun-30 13:00N 05°36' E 000°01'0 0.0
2018-Jun-30 12:30N 05°36' E 000°01'0 0.0
2018-Jun-30 12:00N 05°36' E 000°01'0 0.0
2018-Jun-30 11:31N 05°36' E 000°01'0 0.0
2018-Jun-30 11:01N 05°36' E 000°01'0 0.2
2018-Jun-30 10:31N 05°36' E 000°01'1 1.9
2018-Jun-30 10:01N 05°36' E 000°02'4 7.7
2018-Jun-30 09:29N 05°36' E 000°06'2 4.5
2018-Jun-30 09:01N 05°36' E 000°04'4 8.9
2018-Jun-30 08:30N 05°35' W 000°00'0 0.7
2018-Jun-30 08:01N 05°35' W 000°00'0 0.0
2018-Jun-30 07:30N 05°35' W 000°00'0 0.0
2018-Jun-30 07:00N 05°35' W 000°00'0 0.0
2018-Jun-30 06:31N 05°35' W 000°00'0 0.0
2018-Jun-30 06:01N 05°35' W 000°00'0 0.0
2018-Jun-30 05:31N 05°35' W 000°00'0 0.0
2018-Jun-30 05:00N 05°35' W 000°00'0 0.0
2018-Jun-30 04:30N 05°35' W 000°00'0 0.0
2018-Jun-30 04:01N 05°35' W 000°00'0 0.0
2018-Jun-30 03:30N 05°35' W 000°00'0 0.0
2018-Jun-30 03:00N 05°35' W 000°00'0 0.0
2018-Jun-30 02:31N 05°35' W 000°00'0 0.0
2018-Jun-30 02:01N 05°35' W 000°00'0 0.0
2018-Jun-30 01:31N 05°35' W 000°00'0 0.0
2018-Jun-30 00:57N 05°35' W 000°00'0 0.0
2018-Jun-30 00:31N 05°35' W 000°00'0 0.0
2018-Jun-30 00:00N 05°35' W 000°00'0 0.0
2018-Jun-29 23:30N 05°35' W 000°00'0 0.0
2018-Jun-29 23:01N 05°35' W 000°00'0 0.0
2018-Jun-29 22:29N 05°35' W 000°00'0 0.0
2018-Jun-29 22:01N 05°35' W 000°00'0 0.0
2018-Jun-29 21:30N 05°35' W 000°00'0 0.0
2018-Jun-29 21:00N 05°35' W 000°00'0 0.1
2018-Jun-29 20:31N 05°35' W 000°01'0 0.0
2018-Jun-29 20:00N 05°35' W 000°01'0 0.0
2018-Jun-29 19:29N 05°35' W 000°01'0 0.0
2018-Jun-29 19:00N 05°35' W 000°01'0 0.0
2018-Jun-29 18:29N 05°35' W 000°01'0 0.0
2018-Jun-29 17:58N 05°35' W 000°01'0 0.0
2018-Jun-29 17:26N 05°35' W 000°01'0 0.1
2018-Jun-29 17:01N 05°35' W 000°01'0 0.0
2018-Jun-29 16:30N 05°35' W 000°01'0 0.0
2018-Jun-29 16:00N 05°35' W 000°01'0 0.0
2018-Jun-29 15:31N 05°35' W 000°01'0 0.0
2018-Jun-29 15:01N 05°35' W 000°01'0 0.0
2018-Jun-29 14:30N 05°35' W 000°01'0 0.0
2018-Jun-29 14:01N 05°35' W 000°01'0 0.0
2018-Jun-29 13:30N 05°35' W 000°01'0 0.0
2018-Jun-29 13:00N 05°35' W 000°01'0 0.0
2018-Jun-29 12:30N 05°35' W 000°01'0 0.0
2018-Jun-29 11:58N 05°35' W 000°01'0 0.0
2018-Jun-29 11:30N 05°35' W 000°01'0 0.0
2018-Jun-29 11:00N 05°35' W 000°01'0 0.0
2018-Jun-29 10:30N 05°35' W 000°01'0 0.0
2018-Jun-29 10:01N 05°35' W 000°01'0 0.0
2018-Jun-29 09:30N 05°35' W 000°01'0 0.0
2018-Jun-29 09:00N 05°35' W 000°01'0 0.0
2018-Jun-29 08:30N 05°35' W 000°01'0 0.0
2018-Jun-29 08:00N 05°35' W 000°01'0 0.0
2018-Jun-29 07:30N 05°35' W 000°01'0 0.0
2018-Jun-29 07:00N 05°35' W 000°01'0 0.0
2018-Jun-29 06:31N 05°35' W 000°01'0 0.0
2018-Jun-29 06:00N 05°35' W 000°01'0 0.0
2018-Jun-29 05:30N 05°35' W 000°01'0 0.0
2018-Jun-29 05:00N 05°35' W 000°01'0 0.0
2018-Jun-29 04:30N 05°35' W 000°01'0 0.0
2018-Jun-29 03:59N 05°35' W 000°01'0 0.0
2018-Jun-29 03:31N 05°35' W 000°01'0 0.0
2018-Jun-29 03:00N 05°35' W 000°01'0 0.0
2018-Jun-29 02:31N 05°35' W 000°01'0 0.0
2018-Jun-29 02:00N 05°35' W 000°01'0 0.0
2018-Jun-29 01:31N 05°35' W 000°01'0 0.0
2018-Jun-29 01:01N 05°35' W 000°01'0 0.0
2018-Jun-29 00:30N 05°35' W 000°01'0 0.0
2018-Jun-29 00:01N 05°35' W 000°01'0 0.0
2018-Jun-28 23:29N 05°35' W 000°01'0 0.0
2018-Jun-28 23:01N 05°35' W 000°01'0 0.0
2018-Jun-28 22:30N 05°35' W 000°01'0 0.0
2018-Jun-28 22:01N 05°35' W 000°01'0 0.0
2018-Jun-28 21:31N 05°35' W 000°01'0 0.0
2018-Jun-28 21:00N 05°35' W 000°01'0 0.0
2018-Jun-28 20:30N 05°35' W 000°01'0 0.0
2018-Jun-28 20:00N 05°35' W 000°01'0 0.0
2018-Jun-28 19:30N 05°35' W 000°01'0 0.0
2018-Jun-28 19:00N 05°35' W 000°01'0 0.0
2018-Jun-28 18:30N 05°35' W 000°01'0 0.0
2018-Jun-28 18:00N 05°35' W 000°01'0 0.0
2018-Jun-28 17:30N 05°35' W 000°01'0 0.0
2018-Jun-28 17:00N 05°35' W 000°01'0 0.0
2018-Jun-28 16:31N 05°35' W 000°01'0 0.0
2018-Jun-28 16:00N 05°35' W 000°01'0 0.0
2018-Jun-28 15:27N 05°35' W 000°01'0 0.0
2018-Jun-28 15:00N 05°35' W 000°01'0 0.0
2018-Jun-28 14:31N 05°35' W 000°01'0 0.0
2018-Jun-28 14:00N 05°35' W 000°01'0 0.0
2018-Jun-28 13:30N 05°35' W 000°01'0 0.0
2018-Jun-28 13:00N 05°35' W 000°01'0 0.0
2018-Jun-28 12:30N 05°35' W 000°01'0 0.0
2018-Jun-28 12:00N 05°35' W 000°01'0 0.0
2018-Jun-28 11:30N 05°35' W 000°01'0 0.0
2018-Jun-28 11:00N 05°35' W 000°01'0 0.0
2018-Jun-28 10:31N 05°35' W 000°01'0 0.0
2018-Jun-28 09:59N 05°35' W 000°01'0 0.0
2018-Jun-28 09:27N 05°35' W 000°01'0 0.1
2018-Jun-28 09:01N 05°35' W 000°01'0 0.0
2018-Jun-28 08:29N 05°35' W 000°01'0 0.1
2018-Jun-28 08:01N 05°35' W 000°01'0 0.1
2018-Jun-28 07:30N 05°35' W 000°01'0 0.0
2018-Jun-28 07:00N 05°35' W 000°01'0 0.0
2018-Jun-28 06:31N 05°35' W 000°01'0 0.0
2018-Jun-28 06:01N 05°35' W 000°01'0 0.0
2018-Jun-28 05:31N 05°35' W 000°01'0 0.0
2018-Jun-28 05:01N 05°35' W 000°01'0 0.0
2018-Jun-28 04:30N 05°35' W 000°01'0 0.0
2018-Jun-28 04:00N 05°35' W 000°01'0 0.0
2018-Jun-28 03:30N 05°35' W 000°01'  
Track history (hours):
 
Tides and Currents Weather Stations Pressure Air Temp Water Temp Dewpoint Dewpoint Depression Visibility Wind Speed Wind Dir Waves Ship Positions

Crawford

Last reported at 2018-Jul-08 03:29 UTC. Time now 2018-Jul-21 03:35 UTC.
Position N 06°04' E 001°15'.
Warning: this ship's position is 13 days out of date.

Length 176 m; draft 8.1 m.

Type: Ship. MMSI: 565826000.

Date/timePositionNaut miles runAvg speedWind from/ knotsBaromVisibWave heightAir tempDewpointWater temp
2018-Jul-08 03:29N 06°04' E 001°15'0 0.0
2018-Jul-08 02:59N 06°04' E 001°15'0 0.0
2018-Jul-08 02:08N 06°04' E 001°15'0 0.0
2018-Jul-08 01:46N 06°04' E 001°15'0 0.1
2018-Jul-08 01:30N 06°04' E 001°15'0 0.0
2018-Jul-08 01:01N 06°04' E 001°15'0 0.0
2018-Jul-08 00:30N 06°04' E 001°15'0 0.1
2018-Jul-07 23:59N 06°04' E 001°15'0 0.0
2018-Jul-07 23:30N 06°04' E 001°15'0 0.0
2018-Jul-07 23:00N 06°04' E 001°15'0 0.0
2018-Jul-07 22:30N 06°04' E 001°15'0 0.0
2018-Jul-07 21:57N 06°04' E 001°15'0 0.0
2018-Jul-07 21:31N 06°04' E 001°15'0 0.0
2018-Jul-07 21:00N 06°04' E 001°15'0 0.0
2018-Jul-07 20:31N 06°04' E 001°15'0 0.0
2018-Jul-07 19:59N 06°04' E 001°15'0 0.0
2018-Jul-07 19:18N 06°04' E 001°15'0 0.0
2018-Jul-07 19:00N 06°04' E 001°15'0 0.0
2018-Jul-07 18:30N 06°04' E 001°15'1 0.0
2018-Jul-06 03:27N 06°05' E 001°15'0 0.1
2018-Jul-06 02:53N 06°05' E 001°15'0 0.0
2018-Jul-06 02:21N 06°05' E 001°15'0 0.0
2018-Jul-06 01:54N 06°05' E 001°15'0 0.0
2018-Jul-06 01:30N 06°05' E 001°15'0 0.0
2018-Jul-06 00:58N 06°05' E 001°15'0 0.0
2018-Jul-05 23:04N 06°05' E 001°15'0 0.0
2018-Jul-05 22:52N 06°05' E 001°15'0 0.0
2018-Jul-05 20:54N 06°05' E 001°15'0 0.0
2018-Jul-05 19:41N 06°05' E 001°15'0 0.1
2018-Jul-05 16:51N 06°05' E 001°15'0 0.1
2018-Jul-05 16:20N 06°05' E 001°15'0 0.0
2018-Jul-05 16:00N 06°05' E 001°15'0 0.0
2018-Jul-05 15:29N 06°05' E 001°15'0 0.0
2018-Jul-05 08:40N 06°05' E 001°15'0 0.2
2018-Jul-05 08:27N 06°05' E 001°15'0 0.3
2018-Jul-05 07:29N 06°05' E 001°16'1 0.9
2018-Jul-05 06:38N 06°05' E 001°16'0 0.0
2018-Jul-05 05:01N 06°05' E 001°16'0 0.0
2018-Jul-05 04:31N 06°05' E 001°16'0 0.0
2018-Jul-05 04:30N 06°05' E 001°16'0 0.0
2018-Jul-05 03:58N 06°05' E 001°16'0 0.0
2018-Jul-05 03:28N 06°05' E 001°16'0 0.0
2018-Jul-05 02:31N 06°05' E 001°16'0 0.0
2018-Jul-05 02:30N 06°05' E 001°16'0 0.0
2018-Jul-05 00:12N 06°05' E 001°16'0 0.0
2018-Jul-04 23:52N 06°05' E 001°16'0 0.0
2018-Jul-04 23:30N 06°05' E 001°16'0 0.0
2018-Jul-04 22:57N 06°05' E 001°16'0 0.0
2018-Jul-04 22:30N 06°05' E 001°16'0 0.0
2018-Jul-04 22:00N 06°05' E 001°16'0 0.0
2018-Jul-04 21:24N 06°05' E 001°16'0 0.0
2018-Jul-04 21:01N 06°05' E 001°16'0 0.0
2018-Jul-04 20:07N 06°05' E 001°16'0 0.0
2018-Jul-04 20:00N 06°05' E 001°16'51 9.5
2018-Jul-04 14:40N 05°35' E 000°35'214.0
2018-Jul-04 14:30N 05°36' E 000°32'713.9
2018-Jul-04 14:01N 05°36' E 000°25'713.9
2018-Jul-04 13:30N 05°37' E 000°19'713.6
2018-Jul-04 13:00N 05°38' E 000°12'510.0
2018-Jul-04 12:30N 05°40' E 000°07'0 0.3
2018-Jul-04 12:00N 05°40' E 000°07'0 0.8
2018-Jul-04 11:31N 05°39' E 000°07'0 0.8
2018-Jul-04 11:01N 05°39' E 000°06'2 3.7
2018-Jul-04 10:30N 05°39' E 000°05'0 0.8
2018-Jul-04 10:01N 05°39' E 000°04'0 0.0
2018-Jul-04 09:31N 05°39' E 000°04'0 0.0
2018-Jul-04 09:00N 05°39' E 000°04'0 0.0
2018-Jul-04 08:31N 05°39' E 000°04'0 0.0
2018-Jul-04 08:01N 05°39' E 000°04'0 0.0
2018-Jul-04 07:31N 05°39' E 000°04'0 0.0
2018-Jul-04 07:01N 05°39' E 000°04'0 0.0
2018-Jul-04 06:31N 05°39' E 000°04'0 0.0
2018-Jul-04 06:01N 05°39' E 000°04'0 0.0
2018-Jul-04 05:31N 05°39' E 000°04'0 0.0
2018-Jul-04 05:01N 05°39' E 000°04'0 0.0
2018-Jul-04 04:31N 05°39' E 000°04'0 0.0
2018-Jul-04 04:01N 05°39' E 000°04'0 0.0
2018-Jul-04 03:30N 05°39' E 000°04'0 0.0
2018-Jul-04 03:00N 05°39' E 000°04'0 0.0
2018-Jul-04 02:30N 05°39' E 000°04'0 0.0
2018-Jul-04 02:01N 05°39' E 000°04'0 0.0
2018-Jul-04 01:31N 05°39' E 000°04'0 0.0
2018-Jul-04 01:01N 05°39' E 000°04'0 0.0
2018-Jul-04 00:31N 05°39' E 000°04'0 0.0
2018-Jul-04 00:01N 05°39' E 000°04'0 0.0
2018-Jul-03 23:31N 05°39' E 000°04'0 0.0
2018-Jul-03 23:01N 05°39' E 000°04'0 0.0
2018-Jul-03 22:30N 05°39' E 000°04'0 0.0
2018-Jul-03 22:01N 05°39' E 000°04'0 0.0
2018-Jul-03 21:31N 05°39' E 000°04'0 0.0
2018-Jul-03 21:01N 05°39' E 000°04'0 0.0
2018-Jul-03 20:31N 05°39' E 000°04'0 0.0
2018-Jul-03 20:01N 05°39' E 000°04'0 0.0
2018-Jul-03 19:31N 05°39' E 000°04'0 0.0
2018-Jul-03 19:01N 05°39' E 000°04'0 0.0
2018-Jul-03 18:31N 05°39' E 000°04'0 0.0
2018-Jul-03 18:01N 05°39' E 000°04'0 0.0
2018-Jul-03 17:31N 05°39' E 000°04'0 0.0
2018-Jul-03 17:01N 05°39' E 000°04'0 0.0
2018-Jul-03 16:30N 05°39' E 000°04'0 0.0
2018-Jul-03 16:01N 05°39' E 000°04'0 0.0
2018-Jul-03 15:31N 05°39' E 000°04'0 0.0
2018-Jul-03 15:01N 05°39' E 000°04'0 0.0
2018-Jul-03 14:31N 05°39' E 000°04'0 0.0
2018-Jul-03 14:01N 05°39' E 000°04'0 0.0
2018-Jul-03 13:31N 05°39' E 000°04'0 0.0
2018-Jul-03 13:01N 05°39' E 000°04'0 0.0
2018-Jul-03 12:31N 05°39' E 000°04'0 0.0
2018-Jul-03 12:00N 05°39' E 000°04'0 0.0
2018-Jul-03 11:31N 05°39' E 000°04'0 0.0
2018-Jul-03 11:01N 05°39' E 000°04'0 0.0
2018-Jul-03 10:31N 05°39' E 000°04'0 0.0
2018-Jul-03 10:01N 05°39' E 000°04'0 0.0
2018-Jul-03 09:31N 05°39' E 000°04'0 0.0
2018-Jul-03 09:01N 05°39' E 000°04'0 0.0
2018-Jul-03 08:30N 05°39' E 000°04'0 0.0
2018-Jul-03 08:00N 05°39' E 000°04'0 0.0
2018-Jul-03 07:30N 05°39' E 000°04'0 0.0
2018-Jul-03 07:01N 05°39' E 000°04'0 0.0
2018-Jul-03 06:31N 05°39' E 000°04'0 0.0
2018-Jul-03 06:01N 05°39' E 000°04'0 0.0
2018-Jul-03 05:30N 05°39' E 000°04'0 0.0
2018-Jul-03 05:01N 05°39' E 000°04'0 0.0
2018-Jul-03 04:31N 05°39' E 000°04'0 0.0
2018-Jul-03 04:01N 05°39' E 000°04'0 0.0
2018-Jul-03 03:31N 05°39' E 000°04'0 0.0
2018-Jul-03 03:01N 05°39' E 000°04'0 0.0
2018-Jul-03 02:30N 05°39' E 000°04'0 0.0
2018-Jul-03 02:01N 05°39' E 000°04'0 0.0
2018-Jul-03 01:31N 05°39' E 000°04'0 0.0
2018-Jul-03 01:01N 05°39' E 000°04'0 0.0
2018-Jul-03 00:31N 05°39' E 000°04'0 0.0
2018-Jul-03 00:01N 05°39' E 000°04'0 0.0
2018-Jul-02 23:31N 05°39' E 000°04'0 0.0
2018-Jul-02 23:01N 05°39' E 000°04'0 0.0
2018-Jul-02 22:31N 05°39' E 000°04'0 0.0
2018-Jul-02 22:01N 05°39' E 000°04'0 0.0
2018-Jul-02 21:30N 05°39' E 000°04'0 0.0
2018-Jul-02 21:01N 05°39' E 000°04'0 0.0
2018-Jul-02 20:31N 05°39' E 000°04'0 0.0
2018-Jul-02 20:01N 05°39' E 000°04'0 0.0
2018-Jul-02 19:31N 05°39' E 000°04'0 0.0
2018-Jul-02 19:01N 05°39' E 000°04'0 0.0
2018-Jul-02 18:31N 05°39' E 000°04'0 0.0
2018-Jul-02 18:01N 05°39' E 000°04'0 0.0
2018-Jul-02 17:31N 05°39' E 000°04'0 0.0
2018-Jul-02 17:00N 05°39' E 000°04'0 0.0
2018-Jul-02 16:31N 05°39' E 000°04'0 0.0
2018-Jul-02 16:01N 05°39' E 000°04'0 0.0
2018-Jul-02 15:31N 05°39' E 000°04'0 0.0
2018-Jul-02 15:01N 05°39' E 000°04'0 0.0
2018-Jul-02 14:31N 05°39' E 000°04'0 0.0
2018-Jul-02 14:01N 05°39' E 000°04'0 0.0
2018-Jul-02 13:31N 05°39' E 000°04'0 0.0
2018-Jul-02 13:01N 05°39' E 000°04'0 0.0
2018-Jul-02 12:31N 05°39' E 000°04'0 0.0
2018-Jul-02 12:01N 05°39' E 000°04'0 0.0
2018-Jul-02 11:31N 05°39' E 000°04'0 0.0
2018-Jul-02 11:01N 05°39' E 000°04'0 0.0
2018-Jul-02 10:31N 05°39' E 000°04'0 0.0
2018-Jul-02 10:01N 05°39' E 000°04'0 0.9
2018-Jul-02 09:30N 05°39' E 000°05'1 2.6
2018-Jul-02 09:00N 05°39' E 000°06'1 1.6
2018-Jul-02 08:30N 05°38' E 000°06'1 2.3
2018-Jul-02 08:00N 05°39' E 000°07'1 1.7
2018-Jul-02 07:30N 05°39' E 000°08'0 0.0
2018-Jul-02 07:00N 05°39' E 000°08'0 0.0
2018-Jul-02 06:30N 05°39' E 000°08'0 0.0
2018-Jul-02 06:00N 05°39' E 000°08'0 0.0
2018-Jul-02 05:31N 05°39' E 000°08'0 0.0
2018-Jul-02 05:00N 05°39' E 000°08'0 0.0
2018-Jul-02 04:29N 05°39' E 000°08'0 0.0
2018-Jul-02 04:00N 05°39' E 000°08'0 0.0
2018-Jul-02 03:28N 05°39' E 000°08'0 0.0
2018-Jul-02 03:00N 05°39' E 000°08'0 0.0
2018-Jul-02 02:30N 05°39' E 000°08'0 0.0
2018-Jul-02 01:57N 05°39' E 000°08'0 0.0
2018-Jul-02 01:30N 05°39' E 000°08'0 0.0
2018-Jul-02 01:00N 05°39' E 000°08'0 0.0
2018-Jul-02 00:29N 05°39' E 000°08'0 0.0
2018-Jul-02 00:01N 05°39' E 000°08'0 0.0
2018-Jul-01 23:29N 05°39' E 000°08'0 0.0
2018-Jul-01 23:01N 05°39' E 000°08'0 0.0
2018-Jul-01 22:29N 05°39' E 000°08'0 0.0
2018-Jul-01 21:59N 05°39' E 000°08'0 0.0
2018-Jul-01 21:30N 05°39' E 000°08'0 0.0
2018-Jul-01 21:00N 05°39' E 000°08'0 0.0
2018-Jul-01 20:30N 05°39' E 000°08'0 0.0
2018-Jul-01 20:00N 05°39' E 000°08'0 0.0
2018-Jul-01 19:31N 05°39' E 000°08'0 0.0
2018-Jul-01 19:00N 05°39' E 000°08'0 0.0
2018-Jul-01 18:30N 05°39' E 000°08'0 0.0
2018-Jul-01 18:00N 05°39' E 000°08'0 0.0
2018-Jul-01 17:31N 05°39' E 000°08'0 0.0
2018-Jul-01 17:00N 05°39' E 000°08'0 0.0
2018-Jul-01 16:30N 05°39' E 000°08'0 0.0
2018-Jul-01 16:00N 05°39' E 000°08'0 0.0
2018-Jul-01 15:29N 05°39' E 000°08'0 0.0
2018-Jul-01 15:01N 05°39' E 000°08'0 0.0
2018-Jul-01 14:30N 05°39' E 000°08'0 0.0
2018-Jul-01 14:00N 05°39' E 000°08'0 0.0
2018-Jul-01 13:31N 05°39' E 000°08'0 0.0
2018-Jul-01 13:01N 05°39' E 000°08'0 0.0
2018-Jul-01 12:30N 05°39' E 000°08'0 0.0
2018-Jul-01 12:00N 05°39' E 000°08'0 0.0
2018-Jul-01 11:31N 05°39' E 000°08'0 0.0
2018-Jul-01 11:00N 05°39' E 000°08'0 0.0
2018-Jul-01 10:30N 05°39' E 000°08'0 0.0
2018-Jul-01 09:59N 05°39' E 000°08'0 0.0
2018-Jul-01 09:30N 05°39' E 000°08'0 0.0
2018-Jul-01 09:00N 05°39' E 000°08'0 0.0
2018-Jul-01 08:30N 05°39' E 000°08'1 1.1
2018-Jul-01 08:00N 05°39' E 000°08'4 7.7
2018-Jul-01 07:30N 05°36' E 000°05'4 7.6
2018-Jul-01 07:00N 05°36' E 000°01'0 0.4
2018-Jul-01 06:31N 05°36' E 000°01'0 0.0
2018-Jul-01 06:01N 05°36' E 000°01'0 0.0
2018-Jul-01 05:28N 05°36' E 000°01'0 0.0
2018-Jul-01 05:01N 05°36' E 000°01'0 0.0
2018-Jul-01 04:30N 05°36' E 000°01'0 0.0
2018-Jul-01 04:00N 05°36' E 000°01'0 0.0
2018-Jul-01 03:30N 05°36' E 000°01'0 0.0
2018-Jul-01 03:00N 05°36' E 000°01'0 0.0
2018-Jul-01 02:30N 05°36' E 000°01'0 0.0
2018-Jul-01 02:00N 05°36' E 000°01'0 0.0
2018-Jul-01 01:27N 05°36' E 000°01'0 0.0
2018-Jul-01 01:00N 05°36' E 000°01'0 0.0
2018-Jul-01 00:30N 05°36' E 000°01'0 0.0
2018-Jul-01 00:00N 05°36' E 000°01'0 0.0
2018-Jun-30 23:30N 05°36' E 000°01'0 0.0
2018-Jun-30 23:01N 05°36' E 000°01'0 0.0
2018-Jun-30 22:30N 05°36' E 000°01'0 0.0
2018-Jun-30 21:59N 05°36' E 000°01'0 0.0
2018-Jun-30 21:31N 05°36' E 000°01'0 0.0
2018-Jun-30 21:00N 05°36' E 000°01'0 0.0
2018-Jun-30 20:31N 05°36' E 000°01'0 0.0
2018-Jun-30 20:00N 05°36' E 000°01'0 0.0
2018-Jun-30 19:30N 05°36' E 000°01'0 0.0
2018-Jun-30 19:01N 05°36' E 000°01'0 0.0
2018-Jun-30 18:31N 05°36' E 000°01'0 0.0
2018-Jun-30 18:00N 05°36' E 000°01'0 0.0
2018-Jun-30 17:31N 05°36' E 000°01'0 0.0
2018-Jun-30 17:00N 05°36' E 000°01'0 0.0
2018-Jun-30 16:30N 05°36' E 000°01'0 0.0
2018-Jun-30 15:59N 05°36' E 000°01'0 0.0
2018-Jun-30 15:31N 05°36' E 000°01'0 0.0
2018-Jun-30 15:01N 05°36' E 000°01'0 0.0
2018-Jun-30 14:31N 05°36' E 000°01'0 0.0
2018-Jun-30 14:00N 05°36' E 000°01'0 0.1
2018-Jun-30 13:30N 05°36' E 000°01'0 0.0
2018-Jun-30 13:00N 05°36' E 000°01'0 0.0
2018-Jun-30 12:30N 05°36' E 000°01'0 0.0
2018-Jun-30 12:00N 05°36' E 000°01'0 0.0
2018-Jun-30 11:31N 05°36' E 000°01'0 0.0
2018-Jun-30 11:01N 05°36' E 000°01'0 0.2
2018-Jun-30 10:31N 05°36' E 000°01'1 1.9
2018-Jun-30 10:01N 05°36' E 000°02'4 7.7
2018-Jun-30 09:29N 05°36' E 000°06'2 4.5
2018-Jun-30 09:01N 05°36' E 000°04'4 8.9
2018-Jun-30 08:30N 05°35' W 000°00'0 0.7
2018-Jun-30 08:01N 05°35' W 000°00'0 0.0
2018-Jun-30 07:30N 05°35' W 000°00'0 0.0
2018-Jun-30 07:00N 05°35' W 000°00'0 0.0
2018-Jun-30 06:31N 05°35' W 000°00'0 0.0
2018-Jun-30 06:01N 05°35' W 000°00'0 0.0
2018-Jun-30 05:31N 05°35' W 000°00'0 0.0
2018-Jun-30 05:00N 05°35' W 000°00'0 0.0
2018-Jun-30 04:30N 05°35' W 000°00'0 0.0
2018-Jun-30 04:01N 05°35' W 000°00'0 0.0
2018-Jun-30 03:30N 05°35' W 000°00'0 0.0
2018-Jun-30 03:00N 05°35' W 000°00'0 0.0
2018-Jun-30 02:31N 05°35' W 000°00'0 0.0
2018-Jun-30 02:01N 05°35' W 000°00'0 0.0
2018-Jun-30 01:31N 05°35' W 000°00'0 0.0
2018-Jun-30 00:57N 05°35' W 000°00'0 0.0
2018-Jun-30 00:31N 05°35' W 000°00'0 0.0
2018-Jun-30 00:00N 05°35' W 000°00'0 0.0
2018-Jun-29 23:30N 05°35' W 000°00'0 0.0
2018-Jun-29 23:01N 05°35' W 000°00'0 0.0
2018-Jun-29 22:29N 05°35' W 000°00'0 0.0
2018-Jun-29 22:01N 05°35' W 000°00'0 0.0
2018-Jun-29 21:30N 05°35' W 000°00'0 0.0
2018-Jun-29 21:00N 05°35' W 000°00'0 0.1
2018-Jun-29 20:31N 05°35' W 000°01'0 0.0
2018-Jun-29 20:00N 05°35' W 000°01'0 0.0
2018-Jun-29 19:29N 05°35' W 000°01'0 0.0
2018-Jun-29 19:00N 05°35' W 000°01'0 0.0
2018-Jun-29 18:29N 05°35' W 000°01'0 0.0
2018-Jun-29 17:58N 05°35' W 000°01'0 0.0
2018-Jun-29 17:26N 05°35' W 000°01'0 0.1
2018-Jun-29 17:01N 05°35' W 000°01'0 0.0
2018-Jun-29 16:30N 05°35' W 000°01'0 0.0
2018-Jun-29 16:00N 05°35' W 000°01'0 0.0
2018-Jun-29 15:31N 05°35' W 000°01'0 0.0
2018-Jun-29 15:01N 05°35' W 000°01'0 0.0
2018-Jun-29 14:30N 05°35' W 000°01'0 0.0
2018-Jun-29 14:01N 05°35' W 000°01'0 0.0
2018-Jun-29 13:30N 05°35' W 000°01'0 0.0
2018-Jun-29 13:00N 05°35' W 000°01'0 0.0
2018-Jun-29 12:30N 05°35' W 000°01'0 0.0
2018-Jun-29 11:58N 05°35' W 000°01'0 0.0
2018-Jun-29 11:30N 05°35' W 000°01'0 0.0
2018-Jun-29 11:00N 05°35' W 000°01'0 0.0
2018-Jun-29 10:30N 05°35' W 000°01'0 0.0
2018-Jun-29 10:01N 05°35' W 000°01'0 0.0
2018-Jun-29 09:30N 05°35' W 000°01'0 0.0
2018-Jun-29 09:00N 05°35' W 000°01'0 0.0
2018-Jun-29 08:30N 05°35' W 000°01'0 0.0
2018-Jun-29 08:00N 05°35' W 000°01'0 0.0
2018-Jun-29 07:30N 05°35' W 000°01'0 0.0
2018-Jun-29 07:00N 05°35' W 000°01'0 0.0
2018-Jun-29 06:31N 05°35' W 000°01'0 0.0
2018-Jun-29 06:00N 05°35' W 000°01'0 0.0
2018-Jun-29 05:30N 05°35' W 000°01'0 0.0
2018-Jun-29 05:00N 05°35' W 000°01'0 0.0
2018-Jun-29 04:30N 05°35' W 000°01'0 0.0
2018-Jun-29 03:59N 05°35' W 000°01'0 0.0
2018-Jun-29 03:31N 05°35' W 000°01'0 0.0
2018-Jun-29 03:00N 05°35' W 000°01'0 0.0
2018-Jun-29 02:31N 05°35' W 000°01'0 0.0
2018-Jun-29 02:00N 05°35' W 000°01'0 0.0
2018-Jun-29 01:31N 05°35' W 000°01'0 0.0
2018-Jun-29 01:01N 05°35' W 000°01'0 0.0
2018-Jun-29 00:30N 05°35' W 000°01'0 0.0
2018-Jun-29 00:01N 05°35' W 000°01'0 0.0
2018-Jun-28 23:29N 05°35' W 000°01'0 0.0
2018-Jun-28 23:01N 05°35' W 000°01'0 0.0
2018-Jun-28 22:30N 05°35' W 000°01'0 0.0
2018-Jun-28 22:01N 05°35' W 000°01'0 0.0
2018-Jun-28 21:31N 05°35' W 000°01'0 0.0
2018-Jun-28 21:00N 05°35' W 000°01'0 0.0
2018-Jun-28 20:30N 05°35' W 000°01'0 0.0
2018-Jun-28 20:00N 05°35' W 000°01'0 0.0
2018-Jun-28 19:30N 05°35' W 000°01'0 0.0
2018-Jun-28 19:00N 05°35' W 000°01'0 0.0
2018-Jun-28 18:30N 05°35' W 000°01'0 0.0
2018-Jun-28 18:00N 05°35' W 000°01'0 0.0
2018-Jun-28 17:30N 05°35' W 000°01'0 0.0
2018-Jun-28 17:00N 05°35' W 000°01'0 0.0
2018-Jun-28 16:31N 05°35' W 000°01'0 0.0
2018-Jun-28 16:00N 05°35' W 000°01'0 0.0
2018-Jun-28 15:27N 05°35' W 000°01'0 0.0
2018-Jun-28 15:00N 05°35' W 000°01'0 0.0
2018-Jun-28 14:31N 05°35' W 000°01'0 0.0
2018-Jun-28 14:00N 05°35' W 000°01'0 0.0
2018-Jun-28 13:30N 05°35' W 000°01'0 0.0
2018-Jun-28 13:00N 05°35' W 000°01'0 0.0
2018-Jun-28 12:30N 05°35' W 000°01'0 0.0
2018-Jun-28 12:00N 05°35' W 000°01'0 0.0
2018-Jun-28 11:30N 05°35' W 000°01'0 0.0
2018-Jun-28 11:00N 05°35' W 000°01'0 0.0
2018-Jun-28 10:31N 05°35' W 000°01'0 0.0
2018-Jun-28 09:59N 05°35' W 000°01'0 0.0
2018-Jun-28 09:27N 05°35' W 000°01'0 0.1
2018-Jun-28 09:01N 05°35' W 000°01'0 0.0
2018-Jun-28 08:29N 05°35' W 000°01'0 0.1
2018-Jun-28 08:01N 05°35' W 000°01'0 0.1
2018-Jun-28 07:30N 05°35' W 000°01'0 0.0
2018-Jun-28 07:00N 05°35' W 000°01'0 0.0
2018-Jun-28 06:31N 05°35' W 000°01'0 0.0
2018-Jun-28 06:01N 05°35' W 000°01'0 0.0
2018-Jun-28 05:31N 05°35' W 000°01'0 0.0
2018-Jun-28 05:01N 05°35' W 000°01'0 0.0
2018-Jun-28 04:30N 05°35' W 000°01'0 0.0
2018-Jun-28 04:00N 05°35' W 000°01'0 0.0
2018-Jun-28 03:30N 05°35' W 000°01'  

Dump ship's entire track history